Cobalt, Connecticut
Current Conditions -  °F | °C
As of 11:55 AM on Thursday 30 Oct 2014 (Local Time) from KSNC Reporting Station
Broken Clouds Broken Clouds  
Wind Chill: 55°   Ceiling: 7000
Heat Index: 55°   Visibility: 10mi
Dew Point: 37°   Wind: 8mph
Humidity: 51%   Direction: 350°N
Pressure: 29.97"   Gusts: NA
Location:  41.56°N, 72.56°W
Report Text: KSNC 301555Z AUTO 35007KT 020V360 10SM BKN070 13/03 A2997 RMK AO2
Loading
Personal Weather Stations






























Interactive Weather Map New forecast layout! Learn more

10-Day Weather Forecast

Advertisements
Track Severe Weather on mobile